sensor_id;sensor_type;location;lat;lon;timestamp;temperature;humidity
42989;DHT22;28622;43.716;20.668;2022-10-16T00:01:13;10.00;99.90
42989;DHT22;28622;43.716;20.668;2022-10-16T00:03:40;10.00;99.90
42989;DHT22;28622;43.716;20.668;2022-10-16T00:06:07;9.90;99.90
42989;DHT22;28622;43.716;20.668;2022-10-16T00:08:33;9.80;99.90
42989;DHT22;28622;43.716;20.668;2022-10-16T00:13:46;9.80;99.90
42989;DHT22;28622;43.716;20.668;2022-10-16T00:16:13;9.80;99.90
42989;DHT22;28622;43.716;20.668;2022-10-16T00:18:39;9.80;99.90
42989;DHT22;28622;43.716;20.668;2022-10-16T00:21:10;9.70;99.90
42989;DHT22;28622;43.716;20.668;2022-10-16T00:23:37;9.80;99.90
42989;DHT22;28622;43.716;20.668;2022-10-16T00:26:05;9.70;99.90
42989;DHT22;28622;43.716;20.668;2022-10-16T00:28:32;9.60;99.90
42989;DHT22;28622;43.716;20.668;2022-10-16T00:33:24;9.50;99.90
42989;DHT22;28622;43.716;20.668;2022-10-16T00:35:50;9.50;99.90
42989;DHT22;28622;43.716;20.668;2022-10-16T00:38:16;9.50;99.90
42989;DHT22;28622;43.716;20.668;2022-10-16T00:40:42;9.40;99.90
42989;DHT22;28622;43.716;20.668;2022-10-16T00:46:09;9.30;99.90
42989;DHT22;28622;43.716;20.668;2022-10-16T00:48:36;9.30;99.90
42989;DHT22;28622;43.716;20.668;2022-10-16T00:51:02;9.30;99.90
42989;DHT22;28622;43.716;20.668;2022-10-16T00:53:28;9.30;99.90
42989;DHT22;28622;43.716;20.668;2022-10-16T00:55:54;9.30;99.90
42989;DHT22;28622;43.716;20.668;2022-10-16T00:58:20;9.30;99.90
42989;DHT22;28622;43.716;20.668;2022-10-16T01:00:46;9.20;99.90
42989;DHT22;28622;43.716;20.668;2022-10-16T01:03:26;9.10;99.90
42989;DHT22;28622;43.716;20.668;2022-10-16T01:08:37;9.10;99.90
42989;DHT22;28622;43.716;20.668;2022-10-16T01:11:52;9.10;99.90
42989;DHT22;28622;43.716;20.668;2022-10-16T01:14:47;9.00;99.90
42989;DHT22;28622;43.716;20.668;2022-10-16T01:17:34;9.00;99.90
42989;DHT22;28622;43.716;20.668;2022-10-16T01:23:01;9.00;99.90
42989;DHT22;28622;43.716;20.668;2022-10-16T01:28:24;8.90;99.90
42989;DHT22;28622;43.716;20.668;2022-10-16T01:30:53;8.80;99.90
42989;DHT22;28622;43.716;20.668;2022-10-16T01:33:23;8.80;99.90
42989;DHT22;28622;43.716;20.668;2022-10-16T01:35:54;8.80;99.90
42989;DHT22;28622;43.716;20.668;2022-10-16T01:38:28;8.90;99.90
42989;DHT22;28622;43.716;20.668;2022-10-16T01:41:02;8.90;99.90
42989;DHT22;28622;43.716;20.668;2022-10-16T01:43:35;8.90;99.90
42989;DHT22;28622;43.716;20.668;2022-10-16T01:46:01;9.00;99.90
42989;DHT22;28622;43.716;20.668;2022-10-16T01:48:28;8.90;99.90
42989;DHT22;28622;43.716;20.668;2022-10-16T01:51:07;8.90;99.90
42989;DHT22;28622;43.716;20.668;2022-10-16T01:53:34;8.90;99.90
42989;DHT22;28622;43.716;20.668;2022-10-16T01:56:00;8.80;99.90
42989;DHT22;28622;43.716;20.668;2022-10-16T01:58:28;8.90;99.90
42989;DHT22;28622;43.716;20.668;2022-10-16T02:00:59;9.00;99.90
42989;DHT22;28622;43.716;20.668;2022-10-16T02:03:25;9.00;99.90
42989;DHT22;28622;43.716;20.668;2022-10-16T02:05:54;9.00;99.90
42989;DHT22;28622;43.716;20.668;2022-10-16T02:08:25;9.10;99.90
42989;DHT22;28622;43.716;20.668;2022-10-16T02:10:55;9.10;99.90
42989;DHT22;28622;43.716;20.668;2022-10-16T02:13:30;9.10;99.90
42989;DHT22;28622;43.716;20.668;2022-10-16T02:15:58;9.10;99.90
42989;DHT22;28622;43.716;20.668;2022-10-16T02:18:25;9.20;99.90
42989;DHT22;28622;43.716;20.668;2022-10-16T02:24:23;9.30;99.90
42989;DHT22;28622;43.716;20.668;2022-10-16T02:26:42;9.20;99.90
42989;DHT22;28622;43.716;20.668;2022-10-16T02:29:14;9.30;99.90
42989;DHT22;28622;43.716;20.668;2022-10-16T02:31:45;9.30;99.90
42989;DHT22;28622;43.716;20.668;2022-10-16T02:34:13;9.20;99.90
42989;DHT22;28622;43.716;20.668;2022-10-16T02:36:41;9.20;99.90
42989;DHT22;28622;43.716;20.668;2022-10-16T02:39:08;9.20;99.90
42989;DHT22;28622;43.716;20.668;2022-10-16T02:41:35;9.20;99.90
42989;DHT22;28622;43.716;20.668;2022-10-16T02:44:01;9.20;99.90
42989;DHT22;28622;43.716;20.668;2022-10-16T02:46:26;9.20;99.90
42989;DHT22;28622;43.716;20.668;2022-10-16T02:48:52;9.20;99.90
42989;DHT22;28622;43.716;20.668;2022-10-16T02:51:18;9.20;99.90
42989;DHT22;28622;43.716;20.668;2022-10-16T02:53:44;9.20;99.90
42989;DHT22;28622;43.716;20.668;2022-10-16T02:56:10;9.10;99.90
42989;DHT22;28622;43.716;20.668;2022-10-16T02:58:35;9.20;99.90
42989;DHT22;28622;43.716;20.668;2022-10-16T03:01:01;9.20;99.90
42989;DHT22;28622;43.716;20.668;2022-10-16T03:03:27;9.10;99.90
42989;DHT22;28622;43.716;20.668;2022-10-16T03:05:52;9.10;99.90
42989;DHT22;28622;43.716;20.668;2022-10-16T03:08:18;9.10;99.90
42989;DHT22;28622;43.716;20.668;2022-10-16T03:10:49;9.00;99.90
42989;DHT22;28622;43.716;20.668;2022-10-16T03:13:15;9.00;99.90
42989;DHT22;28622;43.716;20.668;2022-10-16T03:15:41;9.00;99.90
42989;DHT22;28622;43.716;20.668;2022-10-16T03:18:06;8.80;99.90
42989;DHT22;28622;43.716;20.668;2022-10-16T03:20:32;8.80;99.90
42989;DHT22;28622;43.716;20.668;2022-10-16T03:22:58;8.70;99.90
42989;DHT22;28622;43.716;20.668;2022-10-16T03:25:24;8.80;99.90
42989;DHT22;28622;43.716;20.668;2022-10-16T03:27:50;8.70;99.90
42989;DHT22;28622;43.716;20.668;2022-10-16T03:30:16;8.70;99.90
42989;DHT22;28622;43.716;20.668;2022-10-16T03:35:10;8.60;99.90
42989;DHT22;28622;43.716;20.668;2022-10-16T03:37:36;8.50;99.90
42989;DHT22;28622;43.716;20.668;2022-10-16T03:40:03;8.60;99.90
42989;DHT22;28622;43.716;20.668;2022-10-16T03:42:29;8.60;99.90
42989;DHT22;28622;43.716;20.668;2022-10-16T03:44:54;8.60;99.90
42989;DHT22;28622;43.716;20.668;2022-10-16T03:47:20;8.50;99.90
42989;DHT22;28622;43.716;20.668;2022-10-16T03:49:49;8.50;99.90
42989;DHT22;28622;43.716;20.668;2022-10-16T03:52:14;8.50;99.90
42989;DHT22;28622;43.716;20.668;2022-10-16T03:54:40;8.40;99.90
42989;DHT22;28622;43.716;20.668;2022-10-16T03:57:06;8.40;99.90
42989;DHT22;28622;43.716;20.668;2022-10-16T03:59:31;8.30;99.90
42989;DHT22;28622;43.716;20.668;2022-10-16T04:01:57;8.30;99.90
42989;DHT22;28622;43.716;20.668;2022-10-16T04:04:23;8.30;99.90
42989;DHT22;28622;43.716;20.668;2022-10-16T04:06:50;8.30;99.90
42989;DHT22;28622;43.716;20.668;2022-10-16T04:09:16;8.30;99.90
42989;DHT22;28622;43.716;20.668;2022-10-16T04:11:42;8.80;99.90
42989;DHT22;28622;43.716;20.668;2022-10-16T04:14:08;8.20;99.90
42989;DHT22;28622;43.716;20.668;2022-10-16T04:16:34;8.40;99.90
42989;DHT22;28622;43.716;20.668;2022-10-16T04:18:59;8.40;99.90
42989;DHT22;28622;43.716;20.668;2022-10-16T04:21:25;8.30;99.90
42989;DHT22;28622;43.716;20.668;2022-10-16T04:23:51;8.30;99.90
42989;DHT22;28622;43.716;20.668;2022-10-16T04:26:17;8.20;99.90
42989;DHT22;28622;43.716;20.668;2022-10-16T04:28:43;8.30;99.90
42989;DHT22;28622;43.716;20.668;2022-10-16T04:31:09;8.20;99.90
42989;DHT22;28622;43.716;20.668;2022-10-16T04:33:36;8.20;99.90
42989;DHT22;28622;43.716;20.668;2022-10-16T04:36:03;8.20;99.90
42989;DHT22;28622;43.716;20.668;2022-10-16T04:38:29;8.20;99.90
42989;DHT22;28622;43.716;20.668;2022-10-16T04:40:55;8.20;99.90
42989;DHT22;28622;43.716;20.668;2022-10-16T04:43:21;8.10;99.90
42989;DHT22;28622;43.716;20.668;2022-10-16T04:45:47;8.10;99.90
42989;DHT22;28622;43.716;20.668;2022-10-16T04:48:13;8.20;99.90
42989;DHT22;28622;43.716;20.668;2022-10-16T04:50:39;8.10;99.90
42989;DHT22;28622;43.716;20.668;2022-10-16T04:53:05;8.00;99.90
42989;DHT22;28622;43.716;20.668;2022-10-16T04:57:59;7.90;99.90
42989;DHT22;28622;43.716;20.668;2022-10-16T05:00:25;8.00;99.90
42989;DHT22;28622;43.716;20.668;2022-10-16T05:02:51;8.00;99.90
42989;DHT22;28622;43.716;20.668;2022-10-16T05:05:17;7.80;99.90
42989;DHT22;28622;43.716;20.668;2022-10-16T05:07:45;7.90;99.90
42989;DHT22;28622;43.716;20.668;2022-10-16T05:10:11;7.90;99.90
42989;DHT22;28622;43.716;20.668;2022-10-16T05:12:37;7.80;99.90
42989;DHT22;28622;43.716;20.668;2022-10-16T05:15:03;7.80;99.90
42989;DHT22;28622;43.716;20.668;2022-10-16T05:17:29;7.70;99.90
42989;DHT22;28622;43.716;20.668;2022-10-16T05:19:55;7.80;99.90
42989;DHT22;28622;43.716;20.668;2022-10-16T05:22:21;7.90;99.90
42989;DHT22;28622;43.716;20.668;2022-10-16T05:24:47;7.90;99.90
42989;DHT22;28622;43.716;20.668;2022-10-16T05:27:13;7.90;99.90
42989;DHT22;28622;43.716;20.668;2022-10-16T05:29:48;8.00;99.90
42989;DHT22;28622;43.716;20.668;2022-10-16T05:32:18;8.00;99.90
42989;DHT22;28622;43.716;20.668;2022-10-16T05:34:44;8.10;99.90
42989;DHT22;28622;43.716;20.668;2022-10-16T05:37:10;8.20;99.90
42989;DHT22;28622;43.716;20.668;2022-10-16T05:39:37;8.30;99.90
42989;DHT22;28622;43.716;20.668;2022-10-16T05:42:04;8.40;99.90
42989;DHT22;28622;43.716;20.668;2022-10-16T05:44:30;8.40;99.90
42989;DHT22;28622;43.716;20.668;2022-10-16T05:46:56;8.40;99.90
42989;DHT22;28622;43.716;20.668;2022-10-16T05:49:22;8.40;99.90
42989;DHT22;28622;43.716;20.668;2022-10-16T05:51:47;8.40;99.90
42989;DHT22;28622;43.716;20.668;2022-10-16T05:54:13;9.00;99.90
42989;DHT22;28622;43.716;20.668;2022-10-16T05:56:39;8.60;99.90
42989;DHT22;28622;43.716;20.668;2022-10-16T05:59:05;8.60;99.90
42989;DHT22;28622;43.716;20.668;2022-10-16T06:01:31;8.80;99.90
42989;DHT22;28622;43.716;20.668;2022-10-16T06:03:57;9.00;99.90
42989;DHT22;28622;43.716;20.668;2022-10-16T06:06:25;8.90;99.90
42989;DHT22;28622;43.716;20.668;2022-10-16T06:08:52;8.90;99.90
42989;DHT22;28622;43.716;20.668;2022-10-16T06:11:23;8.90;99.90
42989;DHT22;28622;43.716;20.668;2022-10-16T06:13:54;9.00;99.90
42989;DHT22;28622;43.716;20.668;2022-10-16T06:16:22;9.10;99.90
42989;DHT22;28622;43.716;20.668;2022-10-16T06:18:51;9.10;99.90
42989;DHT22;28622;43.716;20.668;2022-10-16T06:21:23;8.00;99.90
42989;DHT22;28622;43.716;20.668;2022-10-16T06:23:50;9.40;99.90
42989;DHT22;28622;43.716;20.668;2022-10-16T06:26:19;9.50;99.90
42989;DHT22;28622;43.716;20.668;2022-10-16T06:28:45;9.60;99.90
42989;DHT22;28622;43.716;20.668;2022-10-16T06:31:12;9.70;99.90
42989;DHT22;28622;43.716;20.668;2022-10-16T06:33:39;9.90;99.90
42989;DHT22;28622;43.716;20.668;2022-10-16T06:36:15;10.00;99.90
42989;DHT22;28622;43.716;20.668;2022-10-16T06:38:42;10.30;99.90
42989;DHT22;28622;43.716;20.668;2022-10-16T06:46:05;11.00;99.90
42989;DHT22;28622;43.716;20.668;2022-10-16T06:48:33;11.30;99.90
42989;DHT22;28622;43.716;20.668;2022-10-16T06:51:00;11.60;99.90
42989;DHT22;28622;43.716;20.668;2022-10-16T06:53:28;11.80;99.90
42989;DHT22;28622;43.716;20.668;2022-10-16T06:55:54;11.90;99.90
42989;DHT22;28622;43.716;20.668;2022-10-16T06:58:20;12.10;99.90
42989;DHT22;28622;43.716;20.668;2022-10-16T07:03:13;12.40;99.90
42989;DHT22;28622;43.716;20.668;2022-10-16T07:05:40;12.50;99.90
42989;DHT22;28622;43.716;20.668;2022-10-16T07:08:06;12.70;99.90
42989;DHT22;28622;43.716;20.668;2022-10-16T07:10:33;12.90;99.90
42989;DHT22;28622;43.716;20.668;2022-10-16T07:12:58;13.20;99.90
42989;DHT22;28622;43.716;20.668;2022-10-16T07:15:25;13.50;99.90
42989;DHT22;28622;43.716;20.668;2022-10-16T07:17:51;13.70;99.90
42989;DHT22;28622;43.716;20.668;2022-10-16T07:20:17;14.10;99.90
42989;DHT22;28622;43.716;20.668;2022-10-16T07:22:43;14.40;99.90
42989;DHT22;28622;43.716;20.668;2022-10-16T07:25:09;14.70;99.90
42989;DHT22;28622;43.716;20.668;2022-10-16T07:27:35;15.00;99.90
42989;DHT22;28622;43.716;20.668;2022-10-16T07:32:27;15.60;99.90
42989;DHT22;28622;43.716;20.668;2022-10-16T07:34:53;15.90;99.90
42989;DHT22;28622;43.716;20.668;2022-10-16T07:39:45;16.20;99.90
42989;DHT22;28622;43.716;20.668;2022-10-16T07:42:11;16.50;99.90
42989;DHT22;28622;43.716;20.668;2022-10-16T07:44:36;16.80;99.90
42989;DHT22;28622;43.716;20.668;2022-10-16T07:47:02;16.90;99.90
42989;DHT22;28622;43.716;20.668;2022-10-16T07:49:28;17.10;99.90
42989;DHT22;28622;43.716;20.668;2022-10-16T07:51:54;17.20;99.90
42989;DHT22;28622;43.716;20.668;2022-10-16T07:54:19;17.50;99.90
42989;DHT22;28622;43.716;20.668;2022-10-16T07:56:45;17.70;99.90
42989;DHT22;28622;43.716;20.668;2022-10-16T07:59:11;17.90;99.90
42989;DHT22;28622;43.716;20.668;2022-10-16T08:01:37;18.20;99.00
42989;DHT22;28622;43.716;20.668;2022-10-16T08:04:03;18.50;99.60
42989;DHT22;28622;43.716;20.668;2022-10-16T08:06:28;18.60;98.10
42989;DHT22;28622;43.716;20.668;2022-10-16T08:08:56;18.70;98.40
42989;DHT22;28622;43.716;20.668;2022-10-16T08:11:22;18.90;96.40
42989;DHT22;28622;43.716;20.668;2022-10-16T08:13:48;18.90;95.70
42989;DHT22;28622;43.716;20.668;2022-10-16T08:16:14;19.20;96.50
42989;DHT22;28622;43.716;20.668;2022-10-16T08:18:41;19.40;94.90
42989;DHT22;28622;43.716;20.668;2022-10-16T08:21:08;19.40;95.10
42989;DHT22;28622;43.716;20.668;2022-10-16T08:23:37;19.40;95.30
42989;DHT22;28622;43.716;20.668;2022-10-16T08:26:05;19.70;95.70
42989;DHT22;28622;43.716;20.668;2022-10-16T08:28:32;19.90;94.00
42989;DHT22;28622;43.716;20.668;2022-10-16T08:31:05;20.10;93.60
42989;DHT22;28622;43.716;20.668;2022-10-16T08:33:31;20.50;93.30
42989;DHT22;28622;43.716;20.668;2022-10-16T08:35:57;20.50;93.00
42989;DHT22;28622;43.716;20.668;2022-10-16T08:38:22;20.70;92.20
42989;DHT22;28622;43.716;20.668;2022-10-16T08:40:48;20.80;92.60
42989;DHT22;28622;43.716;20.668;2022-10-16T08:48:41;20.70;92.10
42989;DHT22;28622;43.716;20.668;2022-10-16T08:51:11;20.70;91.90
42989;DHT22;28622;43.716;20.668;2022-10-16T08:56:46;21.40;94.10
42989;DHT22;28622;43.716;20.668;2022-10-16T08:59:12;21.10;89.80
42989;DHT22;28622;43.716;20.668;2022-10-16T09:01:42;21.30;89.70
42989;DHT22;28622;43.716;20.668;2022-10-16T09:07:08;21.60;87.90
42989;DHT22;28622;43.716;20.668;2022-10-16T09:15:24;21.60;87.30
42989;DHT22;28622;43.716;20.668;2022-10-16T09:23:29;21.90;84.30
42989;DHT22;28622;43.716;20.668;2022-10-16T09:25:56;21.30;84.60
42989;DHT22;28622;43.716;20.668;2022-10-16T09:28:23;21.40;86.00
42989;DHT22;28622;43.716;20.668;2022-10-16T09:30:50;21.30;84.60
42989;DHT22;28622;43.716;20.668;2022-10-16T09:33:18;21.40;86.20
42989;DHT22;28622;43.716;20.668;2022-10-16T09:35:50;21.80;85.90
42989;DHT22;28622;43.716;20.668;2022-10-16T09:38:29;22.10;84.90
42989;DHT22;28622;43.716;20.668;2022-10-16T09:41:00;21.90;84.50
42989;DHT22;28622;43.716;20.668;2022-10-16T09:43:40;22.20;84.60
42989;DHT22;28622;43.716;20.668;2022-10-16T09:46:29;22.20;83.50
42989;DHT22;28622;43.716;20.668;2022-10-16T09:48:58;22.30;83.30
42989;DHT22;28622;43.716;20.668;2022-10-16T09:51:27;22.00;83.30
42989;DHT22;28622;43.716;20.668;2022-10-16T09:53:56;21.90;84.30
42989;DHT22;28622;43.716;20.668;2022-10-16T09:56:33;22.20;84.70
42989;DHT22;28622;43.716;20.668;2022-10-16T09:59:08;22.40;83.10
42989;DHT22;28622;43.716;20.668;2022-10-16T10:01:41;22.50;84.00
42989;DHT22;28622;43.716;20.668;2022-10-16T10:06:51;22.80;83.10
42989;DHT22;28622;43.716;20.668;2022-10-16T10:09:39;23.00;84.80
42989;DHT22;28622;43.716;20.668;2022-10-16T10:12:19;23.00;82.30
42989;DHT22;28622;43.716;20.668;2022-10-16T10:14:53;23.00;81.50
42989;DHT22;28622;43.716;20.668;2022-10-16T10:17:25;22.80;81.40
42989;DHT22;28622;43.716;20.668;2022-10-16T10:19:59;22.90;82.90
42989;DHT22;28622;43.716;20.668;2022-10-16T10:22:41;23.10;83.20
42989;DHT22;28622;43.716;20.668;2022-10-16T10:30:55;23.40;81.20
42989;DHT22;28622;43.716;20.668;2022-10-16T10:38:52;23.40;79.80
42989;DHT22;28622;43.716;20.668;2022-10-16T10:49:15;23.80;78.40
42989;DHT22;28622;43.716;20.668;2022-10-16T10:54:16;23.80;78.20
42989;DHT22;28622;43.716;20.668;2022-10-16T10:57:08;24.10;78.30
42989;DHT22;28622;43.716;20.668;2022-10-16T11:11:05;24.50;75.20
42989;DHT22;28622;43.716;20.668;2022-10-16T11:14:19;24.50;75.30
42989;DHT22;28622;43.716;20.668;2022-10-16T11:17:19;24.60;77.10
42989;DHT22;28622;43.716;20.668;2022-10-16T11:19:53;24.70;75.60
42989;DHT22;28622;43.716;20.668;2022-10-16T11:22:38;24.90;74.40
42989;DHT22;28622;43.716;20.668;2022-10-16T11:25:34;25.10;74.80
42989;DHT22;28622;43.716;20.668;2022-10-16T11:31:15;25.20;72.70
42989;DHT22;28622;43.716;20.668;2022-10-16T11:34:44;25.40;73.90
42989;DHT22;28622;43.716;20.668;2022-10-16T11:36:53;25.40;71.70
42989;DHT22;28622;43.716;20.668;2022-10-16T11:39:24;25.60;73.30
42989;DHT22;28622;43.716;20.668;2022-10-16T11:45:27;25.90;72.00
42989;DHT22;28622;43.716;20.668;2022-10-16T11:50:54;25.80;70.00
42989;DHT22;28622;43.716;20.668;2022-10-16T11:56:20;26.20;70.10
42989;DHT22;28622;43.716;20.668;2022-10-16T11:59:06;26.10;71.10
42989;DHT22;28622;43.716;20.668;2022-10-16T12:01:42;26.00;70.90
42989;DHT22;28622;43.716;20.668;2022-10-16T12:04:39;25.80;69.70
42989;DHT22;28622;43.716;20.668;2022-10-16T12:07:24;25.70;70.10
42989;DHT22;28622;43.716;20.668;2022-10-16T12:09:52;25.60;68.20
42989;DHT22;28622;43.716;20.668;2022-10-16T12:17:59;25.70;68.40
42989;DHT22;28622;43.716;20.668;2022-10-16T12:20:29;25.80;69.10
42989;DHT22;28622;43.716;20.668;2022-10-16T12:22:59;25.70;68.40
42989;DHT22;28622;43.716;20.668;2022-10-16T12:25:29;25.80;69.70
42989;DHT22;28622;43.716;20.668;2022-10-16T12:28:00;26.10;68.60
42989;DHT22;28622;43.716;20.668;2022-10-16T12:30:29;26.10;69.70
42989;DHT22;28622;43.716;20.668;2022-10-16T12:32:58;25.80;68.00
42989;DHT22;28622;43.716;20.668;2022-10-16T12:35:30;25.60;69.00
42989;DHT22;28622;43.716;20.668;2022-10-16T12:38:17;25.40;68.70
42989;DHT22;28622;43.716;20.668;2022-10-16T12:40:45;25.60;69.40
42989;DHT22;28622;43.716;20.668;2022-10-16T12:43:48;25.20;69.50
42989;DHT22;28622;43.716;20.668;2022-10-16T12:48:42;24.90;70.10
42989;DHT22;28622;43.716;20.668;2022-10-16T12:56:51;24.70;70.70
42989;DHT22;28622;43.716;20.668;2022-10-16T13:08:42;25.00;69.60
42989;DHT22;28622;43.716;20.668;2022-10-16T13:11:26;24.90;69.80
42989;DHT22;28622;43.716;20.668;2022-10-16T13:17:05;25.00;70.10
42989;DHT22;28622;43.716;20.668;2022-10-16T13:25:21;24.70;71.20
42989;DHT22;28622;43.716;20.668;2022-10-16T13:28:30;24.80;71.10
42989;DHT22;28622;43.716;20.668;2022-10-16T13:30:57;24.80;71.80
42989;DHT22;28622;43.716;20.668;2022-10-16T13:33:33;24.70;72.30
42989;DHT22;28622;43.716;20.668;2022-10-16T13:36:00;24.80;71.20
42989;DHT22;28622;43.716;20.668;2022-10-16T13:38:28;24.80;72.00
42989;DHT22;28622;43.716;20.668;2022-10-16T13:41:05;24.70;71.30
42989;DHT22;28622;43.716;20.668;2022-10-16T13:43:40;24.50;72.10
42989;DHT22;28622;43.716;20.668;2022-10-16T13:46:15;24.60;72.50
42989;DHT22;28622;43.716;20.668;2022-10-16T13:48:42;24.50;71.30
42989;DHT22;28622;43.716;20.668;2022-10-16T13:51:12;24.50;73.30
42989;DHT22;28622;43.716;20.668;2022-10-16T13:53:38;24.60;71.60
42989;DHT22;28622;43.716;20.668;2022-10-16T13:56:07;24.70;71.50
42989;DHT22;28622;43.716;20.668;2022-10-16T13:58:33;24.60;71.40
42989;DHT22;28622;43.716;20.668;2022-10-16T14:01:02;24.40;72.10
42989;DHT22;28622;43.716;20.668;2022-10-16T14:03:29;24.20;73.60
42989;DHT22;28622;43.716;20.668;2022-10-16T14:05:59;24.00;72.30
42989;DHT22;28622;43.716;20.668;2022-10-16T14:08:27;23.90;74.30
42989;DHT22;28622;43.716;20.668;2022-10-16T14:10:59;23.80;74.70
42989;DHT22;28622;43.716;20.668;2022-10-16T14:13:37;23.70;75.20
42989;DHT22;28622;43.716;20.668;2022-10-16T14:16:16;23.40;75.20
42989;DHT22;28622;43.716;20.668;2022-10-16T14:18:46;23.20;76.10
42989;DHT22;28622;43.716;20.668;2022-10-16T14:21:15;22.80;76.90
42989;DHT22;28622;43.716;20.668;2022-10-16T14:23:42;22.70;77.10
42989;DHT22;28622;43.716;20.668;2022-10-16T14:28:39;22.40;79.20
42989;DHT22;28622;43.716;20.668;2022-10-16T14:33:50;22.10;79.30
42989;DHT22;28622;43.716;20.668;2022-10-16T14:36:16;22.00;80.30
42989;DHT22;28622;43.716;20.668;2022-10-16T14:39:22;21.70;81.20
42989;DHT22;28622;43.716;20.668;2022-10-16T14:41:50;21.70;81.30
42989;DHT22;28622;43.716;20.668;2022-10-16T14:44:22;21.50;82.00
42989;DHT22;28622;43.716;20.668;2022-10-16T14:46:51;21.30;82.30
42989;DHT22;28622;43.716;20.668;2022-10-16T14:49:19;21.20;83.50
42989;DHT22;28622;43.716;20.668;2022-10-16T14:51:46;21.10;83.90
42989;DHT22;28622;43.716;20.668;2022-10-16T14:54:13;21.10;84.10
42989;DHT22;28622;43.716;20.668;2022-10-16T14:56:52;20.90;84.70
42989;DHT22;28622;43.716;20.668;2022-10-16T14:59:32;20.80;85.40
42989;DHT22;28622;43.716;20.668;2022-10-16T15:01:59;20.70;85.70
42989;DHT22;28622;43.716;20.668;2022-10-16T15:04:26;20.60;86.00
42989;DHT22;28622;43.716;20.668;2022-10-16T15:06:51;20.60;86.30
42989;DHT22;28622;43.716;20.668;2022-10-16T15:09:17;20.50;86.50
42989;DHT22;28622;43.716;20.668;2022-10-16T15:11:43;20.40;86.50
42989;DHT22;28622;43.716;20.668;2022-10-16T15:14:12;20.30;86.70
42989;DHT22;28622;43.716;20.668;2022-10-16T15:16:39;20.30;87.40
42989;DHT22;28622;43.716;20.668;2022-10-16T15:19:05;20.20;87.40
42989;DHT22;28622;43.716;20.668;2022-10-16T15:21:32;20.10;87.60
42989;DHT22;28622;43.716;20.668;2022-10-16T15:23:59;20.10;88.00
42989;DHT22;28622;43.716;20.668;2022-10-16T15:26:26;20.00;88.20
42989;DHT22;28622;43.716;20.668;2022-10-16T15:28:53;19.80;88.10
42989;DHT22;28622;43.716;20.668;2022-10-16T15:31:19;19.80;88.60
42989;DHT22;28622;43.716;20.668;2022-10-16T15:33:50;19.70;88.80
42989;DHT22;28622;43.716;20.668;2022-10-16T15:36:28;19.60;89.80
42989;DHT22;28622;43.716;20.668;2022-10-16T15:38:54;19.60;89.70
42989;DHT22;28622;43.716;20.668;2022-10-16T15:41:20;19.50;89.80
42989;DHT22;28622;43.716;20.668;2022-10-16T15:43:48;19.40;90.10
42989;DHT22;28622;43.716;20.668;2022-10-16T15:46:17;19.40;90.40
42989;DHT22;28622;43.716;20.668;2022-10-16T15:48:43;19.40;90.50
42989;DHT22;28622;43.716;20.668;2022-10-16T15:51:09;19.30;90.70
42989;DHT22;28622;43.716;20.668;2022-10-16T15:53:35;19.20;91.00
42989;DHT22;28622;43.716;20.668;2022-10-16T15:56:02;19.10;91.20
42989;DHT22;28622;43.716;20.668;2022-10-16T15:58:28;19.10;91.40
42989;DHT22;28622;43.716;20.668;2022-10-16T16:01:00;19.00;91.50
42989;DHT22;28622;43.716;20.668;2022-10-16T16:03:27;19.00;91.90
42989;DHT22;28622;43.716;20.668;2022-10-16T16:05:53;18.80;92.50
42989;DHT22;28622;43.716;20.668;2022-10-16T16:08:19;18.70;92.90
42989;DHT22;28622;43.716;20.668;2022-10-16T16:10:45;18.60;92.90
42989;DHT22;28622;43.716;20.668;2022-10-16T16:13:11;18.50;93.50
42989;DHT22;28622;43.716;20.668;2022-10-16T16:15:40;18.20;94.60
42989;DHT22;28622;43.716;20.668;2022-10-16T16:18:06;18.10;94.30
42989;DHT22;28622;43.716;20.668;2022-10-16T16:20:32;18.00;94.70
42989;DHT22;28622;43.716;20.668;2022-10-16T16:22:58;17.90;94.70
42989;DHT22;28622;43.716;20.668;2022-10-16T16:25:24;17.80;94.40
42989;DHT22;28622;43.716;20.668;2022-10-16T16:27:49;17.80;94.30
42989;DHT22;28622;43.716;20.668;2022-10-16T16:30:15;17.80;94.40
42989;DHT22;28622;43.716;20.668;2022-10-16T16:32:44;17.70;94.40
42989;DHT22;28622;43.716;20.668;2022-10-16T16:35:09;17.70;94.50
42989;DHT22;28622;43.716;20.668;2022-10-16T16:37:35;17.60;94.60
42989;DHT22;28622;43.716;20.668;2022-10-16T16:40:01;17.60;94.60
42989;DHT22;28622;43.716;20.668;2022-10-16T16:42:28;17.50;94.70
42989;DHT22;28622;43.716;20.668;2022-10-16T16:44:54;17.40;94.70
42989;DHT22;28622;43.716;20.668;2022-10-16T16:47:19;17.30;94.90
42989;DHT22;28622;43.716;20.668;2022-10-16T16:49:45;17.20;95.20
42989;DHT22;28622;43.716;20.668;2022-10-16T16:52:14;17.10;95.20
42989;DHT22;28622;43.716;20.668;2022-10-16T16:54:40;16.90;95.60
42989;DHT22;28622;43.716;20.668;2022-10-16T16:57:05;16.70;95.90
42989;DHT22;28622;43.716;20.668;2022-10-16T16:59:31;16.60;96.20
42989;DHT22;28622;43.716;20.668;2022-10-16T17:02:00;16.50;96.40
42989;DHT22;28622;43.716;20.668;2022-10-16T17:04:26;16.50;96.80
42989;DHT22;28622;43.716;20.668;2022-10-16T17:06:53;16.40;97.00
42989;DHT22;28622;43.716;20.668;2022-10-16T17:09:20;16.40;97.40
42989;DHT22;28622;43.716;20.668;2022-10-16T17:11:46;16.30;97.50
42989;DHT22;28622;43.716;20.668;2022-10-16T17:14:13;16.30;97.60
42989;DHT22;28622;43.716;20.668;2022-10-16T17:16:40;16.20;97.80
42989;DHT22;28622;43.716;20.668;2022-10-16T17:19:12;16.10;97.80
42989;DHT22;28622;43.716;20.668;2022-10-16T17:21:38;16.10;98.30
42989;DHT22;28622;43.716;20.668;2022-10-16T17:24:04;16.00;98.10
42989;DHT22;28622;43.716;20.668;2022-10-16T17:26:31;15.90;98.40
42989;DHT22;28622;43.716;20.668;2022-10-16T17:28:59;15.80;98.40
42989;DHT22;28622;43.716;20.668;2022-10-16T17:31:29;15.80;98.50
42989;DHT22;28622;43.716;20.668;2022-10-16T17:33:57;15.80;98.50
42989;DHT22;28622;43.716;20.668;2022-10-16T17:36:23;15.70;98.50
42989;DHT22;28622;43.716;20.668;2022-10-16T17:38:50;15.80;98.00
42989;DHT22;28622;43.716;20.668;2022-10-16T17:41:21;15.80;97.80
42989;DHT22;28622;43.716;20.668;2022-10-16T17:43:48;15.80;98.10
42989;DHT22;28622;43.716;20.668;2022-10-16T17:46:15;15.70;98.80
42989;DHT22;28622;43.716;20.668;2022-10-16T17:48:45;15.60;99.60
42989;DHT22;28622;43.716;20.668;2022-10-16T17:51:20;15.50;99.90
42989;DHT22;28622;43.716;20.668;2022-10-16T17:53:54;15.40;99.90
42989;DHT22;28622;43.716;20.668;2022-10-16T17:56:22;15.30;99.90
42989;DHT22;28622;43.716;20.668;2022-10-16T17:58:53;15.20;99.90
42989;DHT22;28622;43.716;20.668;2022-10-16T18:01:28;15.10;99.90